createdAt,value
2018-06-19T00:02:08.158Z,2.50
2018-06-19T00:04:36.478Z,2.20
2018-06-19T00:07:04.848Z,2.37
2018-06-19T00:09:33.170Z,2.52
2018-06-19T00:12:01.589Z,2.77
2018-06-19T00:14:29.995Z,2.65
2018-06-19T00:16:58.363Z,2.77
2018-06-19T00:19:27.841Z,2.52
2018-06-19T00:21:58.321Z,2.37
2018-06-19T00:24:26.669Z,2.47
2018-06-19T00:26:55.030Z,2.40
2018-06-19T00:29:23.335Z,2.35
2018-06-19T00:31:51.729Z,2.67
2018-06-19T00:34:20.052Z,2.45
2018-06-19T00:36:48.461Z,2.70
2018-06-19T00:39:16.809Z,2.30
2018-06-19T00:41:45.154Z,2.20
2018-06-19T00:44:13.475Z,2.50
2018-06-19T00:46:44.225Z,2.62
2018-06-19T00:49:12.544Z,2.02
2018-06-19T00:51:40.885Z,2.35
2018-06-19T00:54:09.209Z,2.50
2018-06-19T00:56:48.287Z,2.20
2018-06-19T00:59:16.662Z,2.52
2018-06-19T01:01:45.030Z,2.65
2018-06-19T01:04:13.359Z,2.37
2018-06-19T01:06:41.722Z,2.33
2018-06-19T01:09:10.585Z,2.17
2018-06-19T01:11:39.306Z,2.35
2018-06-19T01:14:07.653Z,2.27
2018-06-19T01:16:36.038Z,2.12
2018-06-19T01:19:04.418Z,1.92
2018-06-19T01:21:32.785Z,2.50
2018-06-19T01:24:01.108Z,2.40
2018-06-19T01:26:29.458Z,2.55
2018-06-19T01:28:57.821Z,2.37
2018-06-19T01:31:26.142Z,2.20
2018-06-19T01:33:54.698Z,2.60
2018-06-19T01:36:23.030Z,2.15
2018-06-19T01:38:51.619Z,2.27
2018-06-19T01:41:20.399Z,2.30
2018-06-19T01:43:48.749Z,2.45
2018-06-19T01:46:16.801Z,2.22
2018-06-19T01:48:45.315Z,1.60
2018-06-19T01:51:13.648Z,2.22
2018-06-19T01:53:41.994Z,2.05
2018-06-19T01:56:10.342Z,2.10
2018-06-19T01:58:38.733Z,2.00
2018-06-19T02:01:07.086Z,1.90
2018-06-19T02:03:35.460Z,1.98
2018-06-19T02:06:03.808Z,2.58
2018-06-19T02:08:32.145Z,1.85
2018-06-19T02:11:00.469Z,2.20
2018-06-19T02:13:31.849Z,2.17
2018-06-19T02:16:00.215Z,2.30
2018-06-19T02:18:28.581Z,2.33
2018-06-19T02:20:56.948Z,2.17
2018-06-19T02:23:25.313Z,2.47
2018-06-19T02:25:53.637Z,2.22
2018-06-19T02:28:21.998Z,1.90
2018-06-19T02:30:50.341Z,2.20
2018-06-19T02:33:18.681Z,2.35
2018-06-19T02:35:47.031Z,1.82
2018-06-19T02:38:15.418Z,2.15
2018-06-19T02:40:43.813Z,2.30
2018-06-19T02:43:12.561Z,2.22
2018-06-19T02:45:40.910Z,2.35
2018-06-19T02:48:09.266Z,2.60
2018-06-19T02:50:37.709Z,2.72
2018-06-19T02:53:06.641Z,2.50
2018-06-19T02:55:34.988Z,2.22
2018-06-19T02:58:03.342Z,2.37
2018-06-19T03:00:31.840Z,2.42
2018-06-19T03:03:00.228Z,2.45
2018-06-19T03:05:28.585Z,2.20
2018-06-19T03:07:56.921Z,2.35
2018-06-19T03:10:25.255Z,2.15
2018-06-19T03:12:53.725Z,2.45
2018-06-19T03:15:22.052Z,2.50
2018-06-19T03:17:50.361Z,2.67
2018-06-19T03:20:18.708Z,2.50
2018-06-19T03:22:47.054Z,2.10
2018-06-19T03:25:15.397Z,2.30
2018-06-19T03:27:43.903Z,3.00
2018-06-19T03:30:12.325Z,2.50
2018-06-19T03:32:40.592Z,2.60
2018-06-19T03:35:08.956Z,2.20
2018-06-19T03:37:37.298Z,2.30
2018-06-19T03:40:05.711Z,2.40
2018-06-19T03:42:34.084Z,3.20
2018-06-19T03:45:02.442Z,3.30
2018-06-19T03:47:30.807Z,2.93
2018-06-19T03:49:59.169Z,2.02
2018-06-19T03:52:27.493Z,3.58
2018-06-19T03:54:56.024Z,3.47
2018-06-19T03:57:24.349Z,2.70
2018-06-19T03:59:52.725Z,2.35
2018-06-19T04:02:21.117Z,2.27
2018-06-19T04:04:49.482Z,2.30
2018-06-19T04:07:17.833Z,2.55
2018-06-19T04:09:46.205Z,2.40
2018-06-19T04:12:14.532Z,2.72
2018-06-19T04:14:42.877Z,2.57
2018-06-19T04:17:15.443Z,2.43
2018-06-19T04:19:43.819Z,2.10
2018-06-19T04:22:12.142Z,2.77
2018-06-19T04:24:40.534Z,2.20
2018-06-19T04:27:08.902Z,2.70
2018-06-19T04:29:37.257Z,2.43
2018-06-19T04:32:05.761Z,3.30
2018-06-19T04:34:34.129Z,3.33
2018-06-19T04:37:02.446Z,3.27
2018-06-19T04:39:30.778Z,4.60
2018-06-19T04:41:59.129Z,4.37
2018-06-19T04:44:27.510Z,3.80
2018-06-19T04:46:55.855Z,3.10
2018-06-19T04:49:23.931Z,2.75
2018-06-19T04:51:52.366Z,2.80
2018-06-19T04:54:20.782Z,3.10
2018-06-19T04:56:49.112Z,2.72
2018-06-19T04:59:17.164Z,3.10
2018-06-19T05:01:45.569Z,2.92
2018-06-19T05:04:15.517Z,2.17
2018-06-19T05:06:43.891Z,2.80
2018-06-19T05:09:13.779Z,4.22
2018-06-19T05:11:43.430Z,3.02
2018-06-19T05:14:11.973Z,3.02
2018-06-19T05:16:41.242Z,2.50
2018-06-19T05:19:09.666Z,2.92
2018-06-19T05:21:38.111Z,2.87
2018-06-19T05:24:06.453Z,2.80
2018-06-19T05:26:34.725Z,2.87
2018-06-19T05:29:03.088Z,2.97
2018-06-19T05:31:31.716Z,2.60
2018-06-19T05:34:00.384Z,2.85
2018-06-19T05:36:28.807Z,3.08
2018-06-19T05:38:57.181Z,3.20
2018-06-19T05:41:25.607Z,3.30
2018-06-19T05:43:53.992Z,3.27
2018-06-19T05:46:22.799Z,4.70
2018-06-19T05:48:51.162Z,4.03
2018-06-19T05:51:19.601Z,3.35
2018-06-19T05:53:47.977Z,3.33
2018-06-19T05:56:16.345Z,3.45
2018-06-19T05:58:44.898Z,3.35
2018-06-19T06:01:13.285Z,3.40
2018-06-19T06:03:41.705Z,3.47
2018-06-19T06:06:10.078Z,3.40
2018-06-19T06:08:38.462Z,3.00
2018-06-19T06:11:07.105Z,3.27
2018-06-19T06:13:35.452Z,2.40
2018-06-19T06:16:04.022Z,2.75
2018-06-19T06:18:32.397Z,2.85
2018-06-19T06:21:01.019Z,3.15
2018-06-19T06:23:29.362Z,2.98
2018-06-19T06:25:57.778Z,2.80
2018-06-19T06:28:26.141Z,2.67
2018-06-19T06:30:54.585Z,2.40
2018-06-19T06:33:23.037Z,2.33
2018-06-19T06:35:51.393Z,2.90
2018-06-19T06:38:19.797Z,2.15
2018-06-19T06:40:48.142Z,2.33
2018-06-19T06:43:16.543Z,2.70
2018-06-19T06:45:45.072Z,2.75
2018-06-19T06:48:13.461Z,2.40
2018-06-19T06:50:41.966Z,3.00
2018-06-19T06:53:10.438Z,2.70
2018-06-19T06:55:38.786Z,3.08
2018-06-19T06:58:07.162Z,2.70
2018-06-19T07:00:35.514Z,2.45
2018-06-19T07:03:03.949Z,3.22
2018-06-19T07:05:32.301Z,2.80
2018-06-19T07:08:00.741Z,2.40
2018-06-19T07:10:28.796Z,2.50
2018-06-19T07:12:57.157Z,2.62
2018-06-19T07:15:25.528Z,3.17
2018-06-19T07:17:53.889Z,2.50
2018-06-19T07:20:22.234Z,2.65
2018-06-19T07:22:50.581Z,2.62
2018-06-19T07:25:18.929Z,2.10
2018-06-19T07:27:47.333Z,2.80
2018-06-19T07:30:15.783Z,2.40
2018-06-19T07:32:44.171Z,2.40
2018-06-19T07:35:12.723Z,2.52
2018-06-19T07:37:41.143Z,3.17
2018-06-19T07:40:09.483Z,2.70
2018-06-19T07:42:37.874Z,2.45
2018-06-19T07:45:06.436Z,2.67
2018-06-19T07:47:35.532Z,2.30
2018-06-19T07:50:04.113Z,2.55
2018-06-19T07:52:32.685Z,2.17
2018-06-19T07:55:01.176Z,2.50
2018-06-19T07:57:29.555Z,2.10
2018-06-19T07:59:57.909Z,1.92
2018-06-19T08:02:26.306Z,2.10
2018-06-19T08:04:54.796Z,2.62
2018-06-19T08:07:23.189Z,2.58
2018-06-19T08:09:51.554Z,2.42
2018-06-19T08:12:19.942Z,1.75
2018-06-19T08:14:48.369Z,2.00
2018-06-19T08:17:16.856Z,2.58
2018-06-19T08:19:45.341Z,2.17
2018-06-19T08:22:14.046Z,1.82
2018-06-19T08:24:42.394Z,2.02
2018-06-19T08:27:10.780Z,1.85
2018-06-19T08:29:39.146Z,2.05
2018-06-19T08:32:07.511Z,2.25
2018-06-19T08:34:36.009Z,2.62
2018-06-19T08:37:04.451Z,2.37
2018-06-19T08:39:32.798Z,2.15
2018-06-19T08:42:01.146Z,2.22
2018-06-19T08:44:29.498Z,2.00
2018-06-19T08:46:57.855Z,2.62
2018-06-19T08:49:26.206Z,2.45
2018-06-19T08:51:54.563Z,2.15
2018-06-19T08:54:23.069Z,2.10
2018-06-19T08:56:51.435Z,2.02
2018-06-19T08:59:19.822Z,1.70
2018-06-19T09:01:48.186Z,1.90
2018-06-19T09:04:16.589Z,2.08
2018-06-19T09:06:45.074Z,2.08
2018-06-19T09:09:13.177Z,1.85
2018-06-19T09:11:41.535Z,1.80
2018-06-19T09:14:09.946Z,1.87
2018-06-19T09:16:38.404Z,2.02
2018-06-19T09:19:06.820Z,2.15
2018-06-19T09:21:35.395Z,1.75
2018-06-19T09:24:03.840Z,2.05
2018-06-19T09:26:32.230Z,1.80
2018-06-19T09:29:00.722Z,1.98
2018-06-19T09:31:29.145Z,2.00
2018-06-19T09:33:57.610Z,1.82
2018-06-19T09:36:25.999Z,1.80
2018-06-19T09:38:54.383Z,1.80
2018-06-19T09:41:22.733Z,2.02
2018-06-19T09:43:51.147Z,1.90
2018-06-19T09:46:19.477Z,2.00
2018-06-19T09:48:47.865Z,2.27
2018-06-19T09:51:16.245Z,2.27
2018-06-19T09:53:44.811Z,1.75
2018-06-19T09:56:13.177Z,1.82
2018-06-19T09:58:41.666Z,1.60
2018-06-19T10:01:10.030Z,1.82
2018-06-19T10:03:38.498Z,1.70
2018-06-19T10:06:06.866Z,1.77
2018-06-19T10:08:35.298Z,1.50
2018-06-19T10:11:03.790Z,1.70
2018-06-19T10:13:32.168Z,1.95
2018-06-19T10:16:00.561Z,2.02
2018-06-19T10:18:28.902Z,2.08
2018-06-19T10:20:57.290Z,1.77
2018-06-19T10:23:25.713Z,2.10
2018-06-19T10:25:54.078Z,1.85
2018-06-19T10:28:22.447Z,1.67
2018-06-19T10:30:50.859Z,1.70
2018-06-19T10:33:19.246Z,1.80
2018-06-19T10:35:47.626Z,1.75
2018-06-19T10:38:15.990Z,1.80
2018-06-19T10:40:44.613Z,1.90
2018-06-19T10:43:12.967Z,1.90
2018-06-19T10:45:41.394Z,1.70
2018-06-19T10:48:10.228Z,1.80
2018-06-19T10:50:38.693Z,2.50
2018-06-19T10:53:07.266Z,2.50
2018-06-19T10:55:35.926Z,2.58
2018-06-19T10:58:04.753Z,2.40
2018-06-19T11:00:33.303Z,2.37
2018-06-19T11:03:01.741Z,2.30
2018-06-19T11:05:29.850Z,2.33
2018-06-19T11:07:58.274Z,2.40
2018-06-19T11:10:26.683Z,2.10
2018-06-19T11:12:55.021Z,2.27
2018-06-19T11:15:23.455Z,2.20
2018-06-19T11:17:51.953Z,2.27
2018-06-19T11:20:20.315Z,2.47
2018-06-19T11:22:48.652Z,2.45
2018-06-19T11:25:17.229Z,2.10
2018-06-19T11:27:45.589Z,1.92
2018-06-19T11:30:13.958Z,1.60
2018-06-19T11:32:42.345Z,1.30
2018-06-19T11:35:10.773Z,1.50
2018-06-19T11:37:39.266Z,1.70
2018-06-19T11:40:07.970Z,1.50
2018-06-19T11:42:36.567Z,1.42
2018-06-19T11:45:05.508Z,1.40
2018-06-19T11:47:33.887Z,1.40
2018-06-19T11:50:02.281Z,1.47
2018-06-19T11:52:30.617Z,1.65
2018-06-19T11:54:59.050Z,1.55
2018-06-19T11:57:27.503Z,1.20
2018-06-19T11:59:55.889Z,1.30
2018-06-19T12:02:24.361Z,1.10
2018-06-19T12:04:52.838Z,1.40
2018-06-19T12:07:21.213Z,1.30
2018-06-19T12:09:49.626Z,1.50
2018-06-19T12:12:18.056Z,1.80
2018-06-19T12:14:46.494Z,1.70
2018-06-19T12:17:15.959Z,1.70
2018-06-19T12:19:44.647Z,1.85
2018-06-19T12:22:13.041Z,1.80
2018-06-19T12:24:41.491Z,1.52
2018-06-19T12:27:09.882Z,1.70
2018-06-19T12:29:38.281Z,1.50
2018-06-19T12:32:06.721Z,1.50
2018-06-19T12:34:35.146Z,1.52
2018-06-19T12:37:03.292Z,1.05
2018-06-19T12:39:31.707Z,1.60
2018-06-19T12:42:00.093Z,1.20
2018-06-19T12:44:28.435Z,0.90
2018-06-19T12:46:56.985Z,1.05
2018-06-19T12:49:36.854Z,1.10
2018-06-19T12:52:17.943Z,0.90
2018-06-19T12:54:53.914Z,1.00
2018-06-19T12:57:22.154Z,0.75
2018-06-19T12:59:50.535Z,1.00
2018-06-19T13:02:19.015Z,0.90
2018-06-19T13:04:58.737Z,0.98
2018-06-19T13:07:27.505Z,1.00
2018-06-19T13:09:55.935Z,0.98
2018-06-19T13:12:35.625Z,0.90
2018-06-19T13:15:04.054Z,1.00
2018-06-19T13:17:43.756Z,0.80
2018-06-19T13:20:23.504Z,1.00
2018-06-19T13:22:51.893Z,0.70
2018-06-19T13:25:20.018Z,0.70
2018-06-19T13:27:48.443Z,0.82
2018-06-19T13:30:28.135Z,0.90
2018-06-19T13:32:56.857Z,0.90
2018-06-19T13:35:25.549Z,0.90
2018-06-19T13:37:53.910Z,0.88
2018-06-19T13:41:31.116Z,1.05
2018-06-19T13:44:12.606Z,1.00
2018-06-19T13:46:41.285Z,0.70
2018-06-19T13:49:09.697Z,0.85
2018-06-19T13:51:38.144Z,0.90
2018-06-19T13:54:06.582Z,0.90
2018-06-19T13:57:10.826Z,0.85
2018-06-19T13:59:39.678Z,1.50
2018-06-19T14:02:08.170Z,3.47
2018-06-19T14:04:36.593Z,1.30
2018-06-19T14:07:06.127Z,1.82
2018-06-19T14:09:47.135Z,0.70
2018-06-19T14:12:25.756Z,0.88
2018-06-19T14:14:56.085Z,0.90
2018-06-19T14:17:25.188Z,0.80
2018-06-19T14:19:54.422Z,1.20
2018-06-19T14:22:23.635Z,1.40
2018-06-19T14:24:52.120Z,1.32
2018-06-19T14:27:20.533Z,0.90
2018-06-19T14:29:48.915Z,1.00
2018-06-19T14:32:17.299Z,1.20
2018-06-19T14:34:45.772Z,1.20
2018-06-19T14:37:14.139Z,8.13
2018-06-19T14:39:42.558Z,6.15
2018-06-19T14:42:11.233Z,2.20
2018-06-19T14:44:39.685Z,3.30
2018-06-19T14:47:08.073Z,0.98
2018-06-19T14:49:36.479Z,1.12
2018-06-19T14:52:04.917Z,5.33
2018-06-19T14:54:33.337Z,0.70
2018-06-19T14:57:01.815Z,6.10
2018-06-19T14:59:30.223Z,2.45
2018-06-19T15:01:58.577Z,1.10
2018-06-19T15:04:26.987Z,0.90
2018-06-19T15:06:55.381Z,1.00
2018-06-19T15:09:23.806Z,0.80
2018-06-19T15:11:52.129Z,0.90
2018-06-19T15:14:20.513Z,2.25
2018-06-19T15:16:49.118Z,4.60
2018-06-19T15:19:17.488Z,2.00
2018-06-19T15:21:45.881Z,5.58
2018-06-19T15:24:14.280Z,9.95
2018-06-19T15:26:42.662Z,3.50
2018-06-19T15:29:11.042Z,1.77
2018-06-19T15:31:39.459Z,4.10
2018-06-19T15:34:07.969Z,2.15
2018-06-19T15:36:36.378Z,1.90
2018-06-19T15:39:07.958Z,1.50
2018-06-19T15:41:36.356Z,1.65
2018-06-19T15:44:05.066Z,0.90
2018-06-19T15:46:33.573Z,1.60
2018-06-19T15:49:01.650Z,1.50
2018-06-19T15:51:29.854Z,2.30
2018-06-19T15:53:57.904Z,1.12
2018-06-19T15:56:26.390Z,1.12
2018-06-19T15:58:54.955Z,1.60
2018-06-19T16:01:23.374Z,1.25
2018-06-19T16:03:51.761Z,0.80
2018-06-19T16:06:20.168Z,0.90
2018-06-19T16:08:48.707Z,0.70
2018-06-19T16:11:17.122Z,1.70
2018-06-19T16:13:45.586Z,3.27
2018-06-19T16:16:13.969Z,0.90
2018-06-19T16:18:42.361Z,4.28
2018-06-19T16:21:10.734Z,6.87
2018-06-19T16:23:39.099Z,1.70
2018-06-19T16:26:07.443Z,4.00
2018-06-19T16:28:36.048Z,5.25
2018-06-19T16:31:04.121Z,1.90
2018-06-19T16:33:32.588Z,2.12
2018-06-19T16:36:00.976Z,1.02
2018-06-19T16:38:29.474Z,0.88
2018-06-19T16:40:57.903Z,0.90
2018-06-19T16:43:26.809Z,1.57
2018-06-19T16:45:55.218Z,1.10
2018-06-19T16:48:23.644Z,1.12
2018-06-19T16:50:52.074Z,1.20
2018-06-19T16:53:20.656Z,1.77
2018-06-19T16:55:48.867Z,2.55
2018-06-19T16:58:17.289Z,1.02
2018-06-19T17:00:45.944Z,3.33
2018-06-19T17:03:14.376Z,1.37
2018-06-19T17:05:42.761Z,1.80
2018-06-19T17:08:11.162Z,1.00
2018-06-19T17:10:39.577Z,1.00
2018-06-19T17:13:07.918Z,0.95
2018-06-19T17:15:36.388Z,0.82
2018-06-19T17:18:04.771Z,1.05
2018-06-19T17:20:33.212Z,1.30
2018-06-19T17:23:01.593Z,1.80
2018-06-19T17:25:29.975Z,1.20
2018-06-19T17:27:58.415Z,9.13
2018-06-19T17:30:26.805Z,8.38
2018-06-19T17:32:55.205Z,5.40
2018-06-19T17:35:23.709Z,5.47
2018-06-19T17:37:52.138Z,1.40
2018-06-19T17:40:20.581Z,1.05
2018-06-19T17:42:49.237Z,1.95
2018-06-19T17:45:17.608Z,8.78
2018-06-19T17:47:45.952Z,9.73
2018-06-19T17:50:14.402Z,2.17
2018-06-19T17:52:42.745Z,4.42
2018-06-19T17:55:11.172Z,5.45
2018-06-19T17:57:39.603Z,1.35
2018-06-19T18:00:07.990Z,1.20
2018-06-19T18:02:36.437Z,1.90
2018-06-19T18:05:04.541Z,1.30
2018-06-19T18:07:32.925Z,2.50
2018-06-19T18:10:01.824Z,2.90
2018-06-19T18:12:30.011Z,1.90
2018-06-19T18:14:58.546Z,5.78
2018-06-19T18:17:27.332Z,14.87
2018-06-19T18:19:55.901Z,3.90
2018-06-19T18:22:23.954Z,6.87
2018-06-19T18:24:52.391Z,9.55
2018-06-19T18:27:20.841Z,9.13
2018-06-19T18:29:49.237Z,3.70
2018-06-19T18:32:18.187Z,3.30
2018-06-19T18:34:46.579Z,5.17
2018-06-19T18:37:14.938Z,2.70
2018-06-19T18:39:43.382Z,2.15
2018-06-19T18:42:11.749Z,2.67
2018-06-19T18:44:40.185Z,2.40
2018-06-19T18:47:08.522Z,6.87
2018-06-19T18:49:36.905Z,7.30
2018-06-19T18:52:05.293Z,3.92
2018-06-19T18:54:33.403Z,4.83
2018-06-19T18:57:01.749Z,1.30
2018-06-19T18:59:30.240Z,1.40
2018-06-19T19:01:58.610Z,3.05
2018-06-19T19:04:27.046Z,2.45
2018-06-19T19:06:55.362Z,2.98
2018-06-19T19:09:23.709Z,5.50
2018-06-19T19:11:52.064Z,3.33
2018-06-19T19:14:20.459Z,2.75
2018-06-19T19:16:54.180Z,5.00
2018-06-19T19:19:24.441Z,5.70
2018-06-19T19:21:53.810Z,3.55
2018-06-19T19:24:22.219Z,1.67
2018-06-19T19:26:56.030Z,1.82
2018-06-19T19:29:30.001Z,2.12
2018-06-19T19:31:58.421Z,2.45
2018-06-19T19:34:26.806Z,2.77
2018-06-19T19:37:00.179Z,2.60
2018-06-19T19:39:31.006Z,3.30
2018-06-19T19:41:59.431Z,14.95
2018-06-19T19:44:29.057Z,13.18
2018-06-19T19:47:02.811Z,7.83
2018-06-19T19:49:31.217Z,4.05
2018-06-19T19:51:59.718Z,4.22
2018-06-19T19:54:28.131Z,3.70
2018-06-19T19:57:01.859Z,3.70
2018-06-19T19:59:30.225Z,5.95
2018-06-19T20:01:58.677Z,4.28
2018-06-19T20:04:27.040Z,9.13
2018-06-19T20:06:55.385Z,7.28
2018-06-19T20:09:23.724Z,7.80
2018-06-19T20:11:52.136Z,6.35
2018-06-19T20:14:20.477Z,4.40
2018-06-19T20:16:48.954Z,4.95
2018-06-19T20:27:56.382Z,6.35
2018-06-19T20:30:24.754Z,6.60
2018-06-19T20:32:53.229Z,4.33
2018-06-19T20:35:21.589Z,3.83
2018-06-19T20:37:50.024Z,3.10
2018-06-19T20:40:18.438Z,2.60
2018-06-19T20:42:46.816Z,2.77
2018-06-19T20:45:15.286Z,2.50
2018-06-19T20:47:43.669Z,1.90
2018-06-19T20:50:12.196Z,1.85
2018-06-19T20:52:40.733Z,2.30
2018-06-19T20:55:09.189Z,2.00
2018-06-19T20:57:37.602Z,2.33
2018-06-19T21:00:05.957Z,2.40
2018-06-19T21:02:34.350Z,2.15
2018-06-19T21:05:02.954Z,2.10
2018-06-19T21:07:31.520Z,1.80
2018-06-19T21:09:59.878Z,1.52
2018-06-19T21:12:28.225Z,1.65
2018-06-19T21:14:56.626Z,1.60
2018-06-19T21:17:25.100Z,4.97
2018-06-19T21:19:53.455Z,5.33
2018-06-19T21:22:21.862Z,4.55
2018-06-19T21:24:50.193Z,5.45
2018-06-19T21:27:18.533Z,3.65
2018-06-19T21:29:46.893Z,2.77
2018-06-19T21:32:15.267Z,2.27
2018-06-19T21:34:43.701Z,1.85
2018-06-19T21:37:12.245Z,1.80
2018-06-19T21:39:40.588Z,1.80
2018-06-19T21:42:08.937Z,1.85
2018-06-19T21:44:37.352Z,1.50
2018-06-19T21:47:05.861Z,1.72
2018-06-19T21:49:34.177Z,1.60
2018-06-19T21:52:02.737Z,1.75
2018-06-19T21:54:31.055Z,1.65
2018-06-19T21:56:59.456Z,1.50
2018-06-19T21:59:27.870Z,1.65
2018-06-19T22:01:56.237Z,1.55
2018-06-19T22:04:24.641Z,1.92
2018-06-19T22:06:52.991Z,1.82
2018-06-19T22:09:21.466Z,1.80
2018-06-19T22:11:49.842Z,1.75
2018-06-19T22:14:18.172Z,1.92
2018-06-19T22:16:46.546Z,1.70
2018-06-19T22:19:14.881Z,1.70
2018-06-19T22:21:43.212Z,1.67
2018-06-19T22:24:11.573Z,1.67
2018-06-19T22:26:39.931Z,1.75
2018-06-19T22:29:08.280Z,1.90
2018-06-19T22:31:36.646Z,1.57
2018-06-19T22:34:05.135Z,1.82
2018-06-19T22:36:33.449Z,1.77
2018-06-19T22:39:01.863Z,1.72
2018-06-19T22:41:30.193Z,1.60
2018-06-19T22:43:58.553Z,1.95
2018-06-19T22:46:26.896Z,1.85
2018-06-19T22:48:55.245Z,1.72
2018-06-19T22:51:24.433Z,1.90
2018-06-19T22:53:52.781Z,1.70
2018-06-19T22:56:21.098Z,1.70
2018-06-19T22:58:49.478Z,1.62
2018-06-19T23:01:17.950Z,1.77
2018-06-19T23:03:46.323Z,1.60
2018-06-19T23:06:14.657Z,2.45
2018-06-19T23:08:43.012Z,3.17
2018-06-19T23:11:11.361Z,2.65
2018-06-19T23:13:39.868Z,3.17
2018-06-19T23:16:08.309Z,4.08
2018-06-19T23:18:36.682Z,4.10
2018-06-19T23:21:05.029Z,3.67
2018-06-19T23:23:33.409Z,2.55
2018-06-19T23:26:01.745Z,2.50
2018-06-19T23:28:30.119Z,2.25
2018-06-19T23:30:58.449Z,2.15
2018-06-19T23:33:26.838Z,2.47
2018-06-19T23:35:55.281Z,2.45
2018-06-19T23:38:23.875Z,2.50
2018-06-19T23:40:52.212Z,2.92
2018-06-19T23:43:20.584Z,5.17
2018-06-19T23:45:48.932Z,8.80
2018-06-19T23:48:17.274Z,5.62
2018-06-19T23:50:45.353Z,3.70
2018-06-19T23:53:13.677Z,2.87
2018-06-19T23:55:42.137Z,2.40
2018-06-19T23:58:10.518Z,2.98
